Time;durP1;ratioP1;P1;durP2;ratioP2;P2;SDS_P1;SDS_P2;PMS_P1;PMS_P2;Temp;Humidity;BMP_temperature;BMP_pressure;BME280_temperature;BME280_humidity;BME280_pressure;Samples;Min_cycle;Max_cycle;Signal;HPM_P1;HPM_P2
2022/07/07 00:00:48;;;;;;;3.47;2.75;;;14.90;99.90;;;;;;6196227;23;20020;-80
2022/07/07 00:03:26;;;;;;;33.15;3.92;;;14.80;99.90;;;;;;6221926;23;20031;-80
2022/07/07 00:05:58;;;;;;;2.40;2.17;;;14.70;99.90;;;;;;6227693;23;20336;-80
2022/07/07 00:08:26;;;;;;;5.45;2.00;;;14.70;99.90;;;;;;6255869;23;20015;-80
2022/07/07 00:11:01;;;;;;;3.65;2.90;;;14.60;99.90;;;;;;6218112;23;20042;-80
2022/07/07 00:13:38;;;;;;;1.90;1.80;;;14.60;99.90;;;;;;6256035;23;20027;-80
2022/07/07 00:16:06;;;;;;;2.33;2.13;;;14.60;99.90;;;;;;6245238;22;20024;-80
2022/07/07 00:18:36;;;;;;;2.67;1.85;;;14.60;99.90;;;;;;6243544;23;20032;-80
2022/07/07 00:21:03;;;;;;;3.90;2.53;;;14.70;99.90;;;;;;6218718;23;20016;-80
2022/07/07 00:23:32;;;;;;;10.15;2.10;;;14.60;99.90;;;;;;6245944;22;20811;-80
2022/07/07 00:26:00;;;;;;;2.00;1.90;;;14.60;99.90;;;;;;6218615;23;20012;-79
2022/07/07 00:28:30;;;;;;;3.05;2.00;;;14.60;99.90;;;;;;6254223;23;20019;-79
2022/07/07 00:30:58;;;;;;;2.03;1.92;;;14.60;99.90;;;;;;6250308;22;20817;-80
2022/07/07 00:33:29;;;;;;;3.50;3.30;;;14.60;99.90;;;;;;6219008;23;20020;-79
2022/07/07 00:35:57;;;;;;;3.47;2.08;;;14.60;99.90;;;;;;6245583;23;20379;-80
2022/07/07 00:38:30;;;;;;;3.08;2.55;;;14.70;99.90;;;;;;6252455;22;20498;-80
2022/07/07 00:40:58;;;;;;;2.10;2.00;;;14.70;99.90;;;;;;6221071;23;20023;-80
2022/07/07 00:43:26;;;;;;;3.47;3.03;;;14.70;99.90;;;;;;6221818;23;20031;-80
2022/07/07 00:45:55;;;;;;;2.10;2.00;;;14.70;99.90;;;;;;6226874;22;20020;-80
2022/07/07 00:48:25;;;;;;;1.98;1.80;;;14.70;99.90;;;;;;6255879;23;20012;-80
2022/07/07 00:50:58;;;;;;;5.00;2.08;;;14.70;99.90;;;;;;6223828;23;20024;-80
2022/07/07 00:53:26;;;;;;;2.55;2.22;;;14.70;99.90;;;;;;6219313;23;20016;-80
2022/07/07 00:55:55;;;;;;;2.55;2.20;;;14.70;99.90;;;;;;6194801;23;20036;-80
2022/07/07 00:58:23;;;;;;;2.08;1.98;;;14.60;99.90;;;;;;6193644;23;20016;-81
2022/07/07 01:00:51;;;;;;;3.05;2.22;;;14.50;99.90;;;;;;6255926;23;20031;-80
2022/07/07 01:03:19;;;;;;;1.98;1.70;;;14.50;99.90;;;;;;6193404;23;20639;-81
2022/07/07 01:05:48;;;;;;;2.45;2.25;;;14.50;99.90;;;;;;6193362;23;20021;-80
2022/07/07 01:08:16;;;;;;;2.40;2.20;;;14.50;99.90;;;;;;6204535;23;20313;-81
2022/07/07 01:10:45;;;;;;;5.25;2.63;;;14.40;99.90;;;;;;6251091;23;20035;-80
2022/07/07 01:13:13;;;;;;;3.08;2.83;;;14.50;99.90;;;;;;6194230;23;20021;-81
2022/07/07 01:15:50;;;;;;;1.90;1.80;;;14.40;99.90;;;;;;6218243;23;20024;-80
2022/07/07 01:18:18;;;;;;;5.00;2.45;;;14.40;99.90;;;;;;6251452;23;20601;-80
2022/07/07 01:20:47;;;;;;;2.55;2.38;;;14.40;99.90;;;;;;6256118;23;20012;-80
2022/07/07 01:23:15;;;;;;;2.30;2.10;;;14.40;99.90;;;;;;6222356;23;20020;-80
2022/07/07 01:25:43;;;;;;;3.42;2.25;;;14.50;99.90;;;;;;6228003;23;20693;-80
2022/07/07 01:28:11;;;;;;;2.38;2.17;;;14.50;99.90;;;;;;6193708;23;20455;-81
2022/07/07 01:30:39;;;;;;;3.03;2.33;;;14.50;99.90;;;;;;6250826;22;20032;-80
2022/07/07 01:33:07;;;;;;;3.28;2.17;;;14.50;99.90;;;;;;6218600;23;20019;-80
2022/07/07 01:35:34;;;;;;;2.28;2.08;;;14.50;99.90;;;;;;6218115;23;20024;-80
2022/07/07 01:38:02;;;;;;;2.75;2.55;;;14.50;99.90;;;;;;6217869;22;20027;-81
2022/07/07 01:40:30;;;;;;;2.10;1.92;;;14.50;99.90;;;;;;6254744;23;20655;-81
2022/07/07 01:42:58;;;;;;;6.32;2.25;;;14.50;99.90;;;;;;6221898;23;20649;-84
2022/07/07 01:45:32;;;;;;;2.47;2.20;;;14.50;99.90;;;;;;6253326;23;20012;-84
2022/07/07 01:48:00;;;;;;;2.60;2.25;;;14.50;99.90;;;;;;6214923;23;20017;-85
2022/07/07 01:50:28;;;;;;;8.98;3.38;;;14.50;99.90;;;;;;6163080;23;20033;-85
2022/07/07 01:52:56;;;;;;;4.32;1.90;;;14.50;99.90;;;;;;6225612;23;20009;-84
2022/07/07 01:55:24;;;;;;;2.78;1.70;;;14.50;99.90;;;;;;6190446;23;20027;-83
2022/07/07 01:57:51;;;;;;;2.08;1.90;;;14.50;99.90;;;;;;6163165;23;20352;-85
2022/07/07 02:00:30;;;;;;;2.00;1.85;;;14.50;99.90;;;;;;6198703;23;20013;-85
2022/07/07 02:02:58;;;;;;;2.67;2.50;;;14.40;99.90;;;;;;6163402;23;20478;-84
2022/07/07 02:05:26;;;;;;;3.85;2.50;;;14.50;99.90;;;;;;6198267;23;20024;-85
2022/07/07 02:07:54;;;;;;;3.33;2.15;;;14.40;99.90;;;;;;6162738;23;20032;-85
2022/07/07 02:13:09;;;;;;;4.32;2.55;;;14.30;99.90;;;;;;6198514;23;20012;-84
2022/07/07 02:15:43;;;;;;;2.40;2.20;;;14.30;99.90;;;;;;6138877;23;20432;-85
2022/07/07 02:18:14;;;;;;;3.42;3.13;;;14.30;99.90;;;;;;6186272;23;20034;-85
2022/07/07 02:20:48;;;;;;;13.57;2.53;;;14.30;99.90;;;;;;6163587;23;20017;-84
2022/07/07 02:23:17;;;;;;;2.95;2.63;;;14.20;99.90;;;;;;6188109;23;20598;-84
2022/07/07 02:25:49;;;;;;;4.55;2.60;;;14.20;99.90;;;;;;6188514;23;20016;-84
2022/07/07 02:28:20;;;;;;;2.15;1.95;;;14.10;99.90;;;;;;6213182;23;20031;-84
2022/07/07 02:30:48;;;;;;;4.00;2.28;;;14.20;99.90;;;;;;6219835;23;20028;-85
2022/07/07 02:33:16;;;;;;;3.40;2.15;;;14.20;99.90;;;;;;6163504;23;20468;-84
2022/07/07 02:35:44;;;;;;;2.63;2.30;;;14.10;99.90;;;;;;6215748;23;20021;-84
2022/07/07 02:38:13;;;;;;;2.97;2.03;;;14.20;99.90;;;;;;6222298;23;20024;-84
2022/07/07 02:40:41;;;;;;;3.28;2.20;;;14.10;99.90;;;;;;6224605;23;20332;-84
2022/07/07 02:43:13;;;;;;;2.58;2.38;;;14.00;99.90;;;;;;6187563;23;20024;-85
2022/07/07 02:45:53;;;;;;;3.90;2.83;;;13.90;99.90;;;;;;6222284;23;21086;-83
2022/07/07 02:48:23;;;;;;;3.45;2.20;;;13.90;99.90;;;;;;6161863;23;20028;-84
2022/07/07 02:50:51;;;;;;;3.47;2.28;;;13.80;99.90;;;;;;6161178;23;20028;-84
2022/07/07 02:53:21;;;;;;;3.70;2.15;;;13.80;99.90;;;;;;6223536;23;20024;-84
2022/07/07 02:55:49;;;;;;;5.82;3.72;;;13.80;99.90;;;;;;6186089;23;20056;-85
2022/07/07 02:58:23;;;;;;;2.35;2.15;;;13.80;99.90;;;;;;6194453;23;20020;-83
2022/07/07 03:01:25;;;;;;;3.22;3.00;;;13.80;99.90;;;;;;6164077;23;20024;-84
2022/07/07 03:03:53;;;;;;;4.18;2.03;;;13.70;99.90;;;;;;6188963;23;20028;-84
2022/07/07 03:06:21;;;;;;;4.40;1.92;;;13.70;99.90;;;;;;6187412;23;20023;-85
2022/07/07 03:08:49;;;;;;;9.32;3.20;;;13.70;99.90;;;;;;6225115;23;20017;-84
2022/07/07 03:11:19;;;;;;;3.72;2.88;;;13.70;99.90;;;;;;6162210;23;20552;-83
2022/07/07 03:13:54;;;;;;;2.13;2.03;;;13.60;99.90;;;;;;6223825;23;20019;-83
2022/07/07 03:16:21;;;;;;;3.10;2.80;;;13.60;99.90;;;;;;6138923;23;20017;-84
2022/07/07 03:18:49;;;;;;;2.25;2.13;;;13.60;99.90;;;;;;6219687;23;20077;-87
2022/07/07 03:21:17;;;;;;;7.20;2.65;;;13.60;99.90;;;;;;6197913;23;20012;-84
2022/07/07 03:23:45;;;;;;;3.03;2.80;;;13.70;99.90;;;;;;6187457;23;20017;-83
2022/07/07 03:26:13;;;;;;;7.63;4.22;;;13.60;99.90;;;;;;6221190;23;20036;-84
2022/07/07 03:28:41;;;;;;;3.45;2.25;;;13.60;99.90;;;;;;6223857;23;20020;-84
2022/07/07 03:31:08;;;;;;;3.63;3.33;;;13.60;99.90;;;;;;6191484;23;20360;-83
2022/07/07 03:33:36;;;;;;;2.30;2.10;;;13.60;99.90;;;;;;6224596;23;20031;-84
2022/07/07 03:36:05;;;;;;;3.15;2.60;;;13.60;99.90;;;;;;6214120;23;20020;-83
2022/07/07 03:38:33;;;;;;;3.10;2.38;;;13.60;99.90;;;;;;6220152;23;20024;-83
2022/07/07 03:41:01;;;;;;;2.53;1.73;;;13.60;99.90;;;;;;6224420;23;20012;-85
2022/07/07 03:43:33;;;;;;;6.38;2.17;;;13.50;99.90;;;;;;6216718;23;20029;-84
2022/07/07 03:46:00;;;;;;;5.35;2.08;;;13.50;99.90;;;;;;6221882;23;20340;-83
2022/07/07 03:48:31;;;;;;;3.80;2.88;;;13.50;99.90;;;;;;6197498;23;20020;-83
2022/07/07 03:50:59;;;;;;;6.18;2.80;;;13.50;99.90;;;;;;6187269;23;20025;-84
2022/07/07 03:53:27;;;;;;;3.50;2.58;;;13.60;99.90;;;;;;6222714;23;20341;-83
2022/07/07 03:55:56;;;;;;;8.05;3.33;;;13.60;99.90;;;;;;6161755;23;20041;-83
2022/07/07 03:58:31;;;;;;;3.45;3.20;;;13.60;99.90;;;;;;6157216;23;20063;-83
2022/07/07 04:01:02;;;;;;;6.47;4.22;;;13.60;99.90;;;;;;6183818;23;20013;-83
2022/07/07 04:03:30;;;;;;;2.97;2.78;;;13.70;99.90;;;;;;6184144;23;20356;-83
2022/07/07 04:05:58;;;;;;;11.68;4.38;;;13.70;99.90;;;;;;6156582;23;20017;-84
2022/07/07 04:08:26;;;;;;;11.00;2.45;;;13.70;99.90;;;;;;6191404;23;20032;-84
2022/07/07 04:10:54;;;;;;;4.05;3.00;;;13.70;99.90;;;;;;6162121;23;20460;-84
2022/07/07 04:13:22;;;;;;;8.63;4.85;;;13.70;99.90;;;;;;6194133;23;20017;-84
2022/07/07 04:15:50;;;;;;;6.28;3.50;;;13.70;99.90;;;;;;6184224;23;20037;-83
2022/07/07 04:18:18;;;;;;;3.95;2.67;;;13.80;99.90;;;;;;6190507;23;20025;-83
2022/07/07 04:20:46;;;;;;;5.43;2.65;;;13.80;99.90;;;;;;6158062;23;20032;-83
2022/07/07 04:23:14;;;;;;;3.50;3.20;;;13.80;99.90;;;;;;6187823;23;20025;-84
2022/07/07 04:25:49;;;;;;;2.47;2.28;;;13.80;99.90;;;;;;6193299;23;20009;-83
2022/07/07 04:28:29;;;;;;;5.25;2.92;;;13.80;99.90;;;;;;6194125;23;20024;-85
2022/07/07 04:30:57;;;;;;;7.22;3.00;;;13.80;99.90;;;;;;6157139;23;20456;-84
2022/07/07 04:33:25;;;;;;;2.60;1.98;;;13.80;99.90;;;;;;6157136;23;20017;-82
2022/07/07 04:35:54;;;;;;;4.20;3.10;;;13.80;99.90;;;;;;6156487;23;20038;-85
2022/07/07 04:38:22;;;;;;;3.05;2.85;;;13.80;99.90;;;;;;6106371;23;20021;-87
2022/07/07 04:40:50;;;;;;;3.90;2.50;;;13.80;99.90;;;;;;6130664;23;20364;-85
2022/07/07 04:43:18;;;;;;;3.72;2.67;;;13.90;99.90;;;;;;6132742;23;20044;-84
2022/07/07 04:45:46;;;;;;;4.40;4.05;;;13.90;99.90;;;;;;6158665;23;20021;-85
2022/07/07 04:48:15;;;;;;;5.43;4.93;;;14.00;99.90;;;;;;6172698;23;20020;-83
2022/07/07 04:50:43;;;;;;;6.10;4.53;;;14.00;99.90;;;;;;6161496;23;20490;-83
2022/07/07 04:53:11;;;;;;;3.65;3.03;;;14.00;99.90;;;;;;6173958;23;20013;-83
2022/07/07 04:55:40;;;;;;;4.63;3.65;;;14.00;99.90;;;;;;6187246;23;20024;-83
2022/07/07 04:58:07;;;;;;;4.25;2.45;;;14.10;99.90;;;;;;6163677;23;20047;-83
2022/07/07 05:00:35;;;;;;;3.22;2.97;;;14.10;99.90;;;;;;6164637;23;20021;-84
2022/07/07 05:03:03;;;;;;;4.28;2.25;;;14.10;99.90;;;;;;6219585;23;20494;-83
2022/07/07 05:05:31;;;;;;;6.18;2.55;;;14.20;99.90;;;;;;6199444;23;20024;-83
2022/07/07 05:07:59;;;;;;;4.93;2.83;;;14.20;99.90;;;;;;6215620;23;20036;-84
2022/07/07 05:10:27;;;;;;;4.30;2.45;;;14.30;99.90;;;;;;6221844;23;20020;-84
2022/07/07 05:12:55;;;;;;;2.72;2.53;;;14.30;99.90;;;;;;6198730;23;20009;-84
2022/07/07 05:16:03;;;;;;;3.10;2.30;;;14.30;99.90;;;;;;6163613;23;20029;-83
2022/07/07 05:18:31;;;;;;;3.10;2.88;;;14.30;99.90;;;;;;6187915;23;20044;-84
2022/07/07 05:20:59;;;;;;;4.55;2.45;;;14.40;99.90;;;;;;6225611;23;20664;-84
2022/07/07 05:23:27;;;;;;;3.72;2.45;;;14.30;99.90;;;;;;6191050;23;20036;-85
2022/07/07 05:25:56;;;;;;;4.55;2.78;;;14.40;99.90;;;;;;6197079;23;20013;-82
2022/07/07 05:28:43;;;;;;;2.97;2.78;;;14.40;99.90;;;;;;6163914;23;20020;-82
2022/07/07 05:31:15;;;;;;;3.33;3.05;;;14.40;99.90;;;;;;6218040;23;20440;-84
2022/07/07 05:33:45;;;;;;;2.85;2.63;;;14.40;99.90;;;;;;6223885;23;20019;-82
2022/07/07 05:36:25;;;;;;;3.35;2.67;;;14.50;99.90;;;;;;6189725;23;20013;-84
2022/07/07 05:38:59;;;;;;;2.97;2.78;;;14.50;99.90;;;;;;6169526;23;20028;-83
2022/07/07 05:41:27;;;;;;;2.85;2.55;;;14.50;99.90;;;;;;6225167;23;20640;-84
2022/07/07 05:43:55;;;;;;;3.97;3.65;;;14.50;99.90;;;;;;6215662;23;20036;-82
2022/07/07 05:46:23;;;;;;;3.42;3.13;;;14.50;99.90;;;;;;6220136;23;20024;-84
2022/07/07 05:48:51;;;;;;;4.55;4.13;;;14.50;99.90;;;;;;6187471;23;20607;-83
2022/07/07 05:51:19;;;;;;;4.32;3.38;;;14.50;99.90;;;;;;6162848;23;20032;-84
2022/07/07 05:53:47;;;;;;;4.88;3.58;;;14.50;99.90;;;;;;6224283;23;20017;-83
2022/07/07 05:56:15;;;;;;;8.50;3.53;;;14.50;99.90;;;;;;6224913;23;20019;-86
2022/07/07 05:58:43;;;;;;;6.10;4.18;;;14.50;99.90;;;;;;6186609;23;20024;-84
2022/07/07 06:01:12;;;;;;;3.28;3.00;;;14.50;99.90;;;;;;6225108;23;20028;-85
2022/07/07 06:03:40;;;;;;;4.88;2.95;;;14.50;99.90;;;;;;6190309;23;20016;-84
2022/07/07 06:06:09;;;;;;;2.25;2.15;;;14.50;99.90;;;;;;6195994;23;20799;-84
2022/07/07 06:08:39;;;;;;;7.35;3.80;;;14.60;99.90;;;;;;6187726;23;20017;-84
2022/07/07 06:11:07;;;;;;;10.43;3.60;;;14.50;99.90;;;;;;6216551;23;20029;-85
2022/07/07 06:13:35;;;;;;;20.42;3.78;;;14.60;99.90;;;;;;6198684;23;20020;-85
2022/07/07 06:16:03;;;;;;;36.88;4.32;;;14.60;99.90;;;;;;6214650;23;20601;-85
2022/07/07 06:18:31;;;;;;;4.18;3.38;;;14.60;99.90;;;;;;6138900;23;20369;-85
2022/07/07 06:21:00;;;;;;;3.97;3.28;;;14.70;99.90;;;;;;6198232;23;20009;-86
2022/07/07 06:23:28;;;;;;;6.28;3.72;;;14.70;99.90;;;;;;6190138;23;20021;-84
2022/07/07 06:25:56;;;;;;;5.18;2.38;;;14.70;99.90;;;;;;6171315;23;20019;-84
2022/07/07 06:28:24;;;;;;;3.67;3.10;;;14.80;99.90;;;;;;6197586;23;20020;-85
2022/07/07 06:30:53;;;;;;;11.57;3.38;;;14.80;99.90;;;;;;6193394;23;20031;-86
2022/07/07 06:33:28;;;;;;;2.00;1.90;;;14.80;99.90;;;;;;6225211;23;20012;-85
2022/07/07 06:35:59;;;;;;;4.07;2.38;;;14.90;99.90;;;;;;6214653;23;20620;-85
2022/07/07 06:38:27;;;;;;;2.10;2.00;;;14.90;99.90;;;;;;6187294;23;20024;-86
2022/07/07 06:40:58;;;;;;;4.75;3.00;;;14.90;99.90;;;;;;6197257;23;20024;-84
2022/07/07 06:43:26;;;;;;;3.05;2.78;;;14.90;99.90;;;;;;6215899;23;20439;-85
2022/07/07 06:45:55;;;;;;;3.45;2.55;;;15.00;99.90;;;;;;6221627;23;20024;-85
2022/07/07 06:48:23;;;;;;;3.72;3.42;;;15.00;99.90;;;;;;6197537;23;20016;-83
2022/07/07 06:50:51;;;;;;;1.98;1.88;;;15.00;99.90;;;;;;6218663;23;20013;-85
2022/07/07 06:53:20;;;;;;;4.70;2.67;;;14.90;99.90;;;;;;6197975;23;20008;-84
2022/07/07 06:55:48;;;;;;;4.70;2.00;;;15.00;99.90;;;;;;6185194;23;20029;-83
2022/07/07 06:58:16;;;;;;;8.48;2.72;;;14.90;99.90;;;;;;6194571;23;20020;-85
2022/07/07 07:00:44;;;;;;;4.18;3.15;;;14.90;99.90;;;;;;6224099;23;20028;-86
2022/07/07 07:03:14;;;;;;;4.20;2.17;;;14.90;99.90;;;;;;6190559;23;20033;-85
2022/07/07 07:05:43;;;;;;;11.02;2.42;;;14.80;99.90;;;;;;6222473;23;20021;-83
2022/07/07 07:08:11;;;;;;;6.40;3.65;;;14.80;99.90;;;;;;6161198;23;20345;-84
2022/07/07 07:10:40;;;;;;;3.10;2.70;;;14.80;99.90;;;;;;6217680;23;20444;-83
2022/07/07 07:13:08;;;;;;;1.92;1.80;;;14.80;99.90;;;;;;6173075;23;20013;-85
2022/07/07 07:15:41;;;;;;;2.28;1.90;;;14.80;99.90;;;;;;6213553;23;20461;-84
2022/07/07 07:18:10;;;;;;;7.97;2.85;;;14.80;99.90;;;;;;6185819;23;20020;-84
2022/07/07 07:20:40;;;;;;;2.63;2.15;;;14.90;99.90;;;;;;6187590;23;20427;-85
2022/07/07 07:23:08;;;;;;;4.05;1.98;;;14.90;99.90;;;;;;6186762;23;20344;-85
2022/07/07 07:25:36;;;;;;;6.85;3.55;;;15.00;99.90;;;;;;6160872;23;20459;-87
2022/07/07 07:28:04;;;;;;;2.08;1.95;;;15.10;99.90;;;;;;6186168;23;20028;-85
2022/07/07 07:30:33;;;;;;;2.08;1.80;;;15.20;99.90;;;;;;6219750;23;20028;-83
2022/07/07 07:33:01;;;;;;;6.20;1.92;;;15.20;99.90;;;;;;6187278;23;20028;-85
2022/07/07 07:35:41;;;;;;;4.85;3.15;;;15.20;99.90;;;;;;6161671;23;20024;-84
2022/07/07 07:38:14;;;;;;;2.20;2.00;;;15.20;99.90;;;;;;6161106;23;20028;-84
2022/07/07 07:41:12;;;;;;;7.25;1.90;;;15.30;99.90;;;;;;6223511;23;20017;-84
2022/07/07 07:43:43;;;;;;;1.98;1.67;;;15.30;99.90;;;;;;6215034;23;20073;-85
2022/07/07 07:46:12;;;;;;;1.98;1.80;;;15.30;99.90;;;;;;6194099;23;20025;-83
2022/07/07 07:48:43;;;;;;;3.45;1.92;;;15.30;99.90;;;;;;6212683;23;20008;-85
2022/07/07 07:51:11;;;;;;;3.33;2.50;;;15.30;99.90;;;;;;6161445;23;20027;-85
2022/07/07 07:53:39;;;;;;;4.57;2.83;;;15.30;99.90;;;;;;6224358;23;20008;-84
2022/07/07 07:56:07;;;;;;;3.38;2.60;;;15.40;99.90;;;;;;6185598;23;20021;-85
2022/07/07 07:58:35;;;;;;;1.92;1.70;;;15.40;99.90;;;;;;6219624;23;20028;-83
2022/07/07 08:01:04;;;;;;;2.33;2.05;;;15.40;99.90;;;;;;6223182;23;20009;-84
2022/07/07 08:03:32;;;;;;;1.85;1.75;;;15.40;99.90;;;;;;6215459;23;20017;-83
2022/07/07 08:06:03;;;;;;;2.90;1.98;;;15.40;99.90;;;;;;6219751;23;20055;-84
2022/07/07 08:08:32;;;;;;;6.30;2.97;;;15.50;99.90;;;;;;6162677;23;20016;-83
2022/07/07 08:11:00;;;;;;;2.10;1.90;;;15.60;99.90;;;;;;6190257;23;20048;-83
2022/07/07 08:13:28;;;;;;;7.97;2.35;;;15.60;99.90;;;;;;6186651;23;20023;-82
2022/07/07 08:15:57;;;;;;;5.90;2.83;;;15.80;99.90;;;;;;6215034;23;20017;-83
2022/07/07 08:18:26;;;;;;;4.35;2.28;;;15.90;99.90;;;;;;6222035;23;20012;-83
2022/07/07 08:20:55;;;;;;;2.00;1.88;;;16.10;99.90;;;;;;6225740;23;20061;-84
2022/07/07 08:23:23;;;;;;;2.30;2.10;;;16.10;99.90;;;;;;6217947;23;20036;-83
2022/07/07 08:25:51;;;;;;;1.95;1.83;;;16.00;99.90;;;;;;6195853;23;20012;-82
2022/07/07 08:28:19;;;;;;;4.35;2.40;;;16.00;99.90;;;;;;6188264;23;20436;-82
2022/07/07 08:30:47;;;;;;;3.75;2.05;;;16.10;99.90;;;;;;6188638;23;20031;-85
2022/07/07 08:33:16;;;;;;;2.20;1.90;;;16.10;99.90;;;;;;6225640;23;20447;-85
2022/07/07 08:35:44;;;;;;;2.47;2.28;;;16.10;99.90;;;;;;6163371;23;20039;-84
2022/07/07 08:38:12;;;;;;;1.70;1.60;;;16.10;99.90;;;;;;6187980;23;20028;-83
2022/07/07 08:40:42;;;;;;;3.25;1.50;;;16.10;99.90;;;;;;6139605;23;20016;-84
2022/07/07 08:43:18;;;;;;;3.03;2.53;;;16.20;99.90;;;;;;6164012;23;20024;-85
2022/07/07 08:45:48;;;;;;;8.45;2.17;;;16.30;99.90;;;;;;6223813;23;20017;-84
2022/07/07 08:48:17;;;;;;;4.80;1.75;;;16.40;99.90;;;;;;6198866;23;20024;-84
2022/07/07 08:50:46;;;;;;;5.30;1.98;;;16.30;99.90;;;;;;6163408;23;20032;-84
2022/07/07 08:53:14;;;;;;;2.70;1.85;;;16.30;99.90;;;;;;6225127;23;20009;-84
2022/07/07 08:55:45;;;;;;;6.07;1.77;;;16.20;99.90;;;;;;6165360;23;20029;-84
2022/07/07 08:58:16;;;;;;;2.35;1.63;;;16.30;99.90;;;;;;6138762;23;20641;-82
2022/07/07 09:01:06;;;;;;;5.40;1.92;;;16.30;99.90;;;;;;6188931;23;20023;-84
2022/07/07 09:03:35;;;;;;;1.90;1.80;;;16.40;99.90;;;;;;6191490;23;20017;-84
2022/07/07 09:06:03;;;;;;;2.50;1.77;;;16.40;99.90;;;;;;6223948;23;20436;-83
2022/07/07 09:08:33;;;;;;;3.63;1.77;;;16.50;99.90;;;;;;6198875;23;20034;-85
2022/07/07 09:11:05;;;;;;;2.10;1.90;;;16.60;99.90;;;;;;6163040;23;20024;-86
2022/07/07 09:13:39;;;;;;;2.00;1.88;;;16.70;99.90;;;;;;6164217;23;20459;-84
2022/07/07 09:16:16;;;;;;;9.63;2.92;;;16.70;99.90;;;;;;6164109;23;20369;-84
2022/07/07 09:18:59;;;;;;;1.85;1.75;;;16.60;99.90;;;;;;6219674;23;20027;-84
2022/07/07 09:21:30;;;;;;;2.97;1.40;;;16.70;99.90;;;;;;6188878;23;20016;-83
2022/07/07 09:24:05;;;;;;;6.03;1.70;;;16.60;99.90;;;;;;6188381;23;20025;-85
2022/07/07 09:26:35;;;;;;;7.45;1.85;;;16.60;99.90;;;;;;6138911;23;20033;-83
2022/07/07 09:29:05;;;;;;;6.45;3.83;;;16.60;99.90;;;;;;6225824;23;20455;-83
2022/07/07 09:32:04;;;;;;;1.95;1.77;;;16.70;99.90;;;;;;6163315;23;20052;-83
2022/07/07 09:34:35;;;;;;;2.20;2.10;;;16.60;99.90;;;;;;6220879;23;20025;-83
2022/07/07 09:39:56;;;;;;;4.53;1.70;;;16.50;99.90;;;;;;6162407;23;20028;-85
2022/07/07 09:42:36;;;;;;;3.08;2.05;;;16.60;99.90;;;;;;6194639;23;20020;-84
2022/07/07 09:45:10;;;;;;;5.00;2.00;;;16.70;99.90;;;;;;6188574;23;20016;-82
2022/07/07 09:47:40;;;;;;;2.85;1.65;;;16.70;99.90;;;;;;6211837;23;20028;-84
2022/07/07 09:50:12;;;;;;;2.65;1.50;;;16.70;99.90;;;;;;6185381;23;20021;-84
2022/07/07 09:52:47;;;;;;;5.45;2.50;;;16.70;99.90;;;;;;6162045;23;20013;-86
2022/07/07 09:55:15;;;;;;;2.35;2.17;;;16.80;99.90;;;;;;6162820;23;20032;-86
2022/07/07 09:57:44;;;;;;;7.18;2.75;;;16.70;99.90;;;;;;6187343;23;20456;-85
2022/07/07 10:00:13;;;;;;;6.38;1.67;;;16.70;99.90;;;;;;6187842;23;20016;-84
2022/07/07 10:02:42;;;;;;;3.38;1.50;;;16.60;99.90;;;;;;6187811;23;20352;-83
2022/07/07 10:05:12;;;;;;;5.28;1.83;;;16.50;99.90;;;;;;6163728;23;20024;-82
2022/07/07 10:07:45;;;;;;;8.20;2.75;;;16.30;99.90;;;;;;6186872;23;20340;-80
2022/07/07 10:10:13;;;;;;;5.82;1.92;;;16.10;99.90;;;;;;6221710;23;20336;-82
2022/07/07 10:12:45;;;;;;;1.52;1.42;;;16.00;99.90;;;;;;6199069;23;20432;-83
2022/07/07 10:15:14;;;;;;;5.85;2.22;;;15.90;99.90;;;;;;6217587;23;20025;-83
2022/07/07 10:17:43;;;;;;;7.60;2.17;;;15.90;99.90;;;;;;6163066;23;20021;-83
2022/07/07 10:20:12;;;;;;;2.70;2.10;;;15.90;99.90;;;;;;6213672;23;20032;-83
2022/07/07 10:22:40;;;;;;;4.53;2.22;;;16.00;99.90;;;;;;6194060;23;20475;-83
2022/07/07 10:25:09;;;;;;;3.88;2.33;;;16.20;99.90;;;;;;6224199;23;20024;-84
2022/07/07 10:27:44;;;;;;;2.10;1.90;;;16.30;99.90;;;;;;6186831;23;20021;-83
2022/07/07 10:30:29;;;;;;;10.85;3.47;;;16.30;99.90;;;;;;6221793;23;20052;-82
2022/07/07 10:32:57;;;;;;;3.72;1.88;;;16.20;99.90;;;;;;6188536;23;20013;-82
2022/07/07 10:35:27;;;;;;;6.05;2.08;;;16.30;99.90;;;;;;6217201;23;20040;-83
2022/07/07 10:37:56;;;;;;;1.80;1.70;;;16.40;99.90;;;;;;6187896;23;20020;-83
2022/07/07 10:40:31;;;;;;;2.78;2.13;;;16.40;99.90;;;;;;6186768;23;20031;-84
2022/07/07 10:43:22;;;;;;;3.47;2.65;;;16.50;99.90;;;;;;6163976;23;20054;-84
2022/07/07 10:45:52;;;;;;;3.05;2.83;;;16.50;99.90;;;;;;6223677;23;20040;-83
2022/07/07 10:48:45;;;;;;;1.80;1.60;;;16.40;99.90;;;;;;6223229;23;20742;-85
2022/07/07 10:51:22;;;;;;;4.85;2.17;;;16.40;99.90;;;;;;6187783;23;20024;-84
2022/07/07 10:54:02;;;;;;;1.83;1.70;;;16.20;99.90;;;;;;6224232;23;20024;-83
2022/07/07 10:56:53;;;;;;;7.57;2.60;;;16.20;99.90;;;;;;6224452;23;20016;-83
2022/07/07 10:59:22;;;;;;;4.72;3.30;;;16.00;99.90;;;;;;6190624;23;20040;-83
2022/07/07 11:02:03;;;;;;;3.10;2.45;;;16.00;99.90;;;;;;6196496;23;20009;-84
2022/07/07 11:04:43;;;;;;;2.30;2.00;;;16.00;99.90;;;;;;6224909;23;20437;-83
2022/07/07 11:07:14;;;;;;;3.50;1.95;;;16.10;99.90;;;;;;6162019;23;20440;-84
2022/07/07 11:10:05;;;;;;;22.67;2.90;;;16.20;99.90;;;;;;6223573;23;20009;-84
2022/07/07 11:12:34;;;;;;;6.35;2.90;;;16.40;99.90;;;;;;6199337;23;20031;-84
2022/07/07 11:15:14;;;;;;;2.63;2.42;;;16.40;99.90;;;;;;6162739;23;20025;-84
2022/07/07 11:17:43;;;;;;;5.07;2.45;;;16.40;99.90;;;;;;6197265;23;20016;-83
2022/07/07 11:20:16;;;;;;;6.38;3.00;;;16.40;99.90;;;;;;6223442;23;20445;-83
2022/07/07 11:22:54;;;;;;;7.05;3.75;;;16.30;99.90;;;;;;6186648;23;20025;-82
2022/07/07 11:25:24;;;;;;;12.32;4.82;;;16.30;99.90;;;;;;6162347;23;20017;-82
2022/07/07 11:27:52;;;;;;;1.95;1.85;;;16.40;99.90;;;;;;6213937;23;20028;-83
2022/07/07 11:30:24;;;;;;;3.47;2.00;;;16.60;99.90;;;;;;6186775;23;20024;-82
2022/07/07 11:32:57;;;;;;;6.07;2.55;;;16.60;99.90;;;;;;6223915;23;20016;-83
2022/07/07 11:35:29;;;;;;;4.15;1.92;;;16.70;99.90;;;;;;6188663;23;20032;-83
2022/07/07 11:37:58;;;;;;;3.92;2.65;;;16.90;99.90;;;;;;6194984;23;20028;-82
2022/07/07 11:40:26;;;;;;;2.20;1.98;;;17.00;99.90;;;;;;6222331;23;20020;-86
2022/07/07 11:42:54;;;;;;;3.92;1.60;;;17.00;99.90;;;;;;6137954;23;20025;-85
2022/07/07 11:45:31;;;;;;;7.80;2.67;;;17.00;99.90;;;;;;6162300;23;20344;-86
2022/07/07 11:48:03;;;;;;;3.00;2.45;;;17.10;99.90;;;;;;6186032;23;20032;-84
2022/07/07 11:50:37;;;;;;;2.45;2.35;;;17.10;99.90;;;;;;6193430;23;20017;-85
2022/07/07 11:53:09;;;;;;;6.50;3.65;;;17.30;99.90;;;;;;6197299;23;20020;-84
2022/07/07 11:55:37;;;;;;;2.38;2.17;;;17.30;99.90;;;;;;6187067;23;20021;-88
2022/07/07 11:58:07;;;;;;;4.55;2.88;;;17.30;99.90;;;;;;6162214;23;20431;-87
2022/07/07 12:00:37;;;;;;;2.50;2.17;;;17.10;99.90;;;;;;6138666;23;20013;-83
2022/07/07 12:03:11;;;;;;;2.20;2.10;;;17.10;99.90;;;;;;6162037;23;20027;-85
2022/07/07 12:05:45;;;;;;;2.80;2.65;;;17.10;99.90;;;;;;6174203;23;20020;-85
2022/07/07 12:08:14;;;;;;;2.72;2.53;;;17.10;99.90;;;;;;6186561;23;20020;-84
2022/07/07 12:10:51;;;;;;;1.73;1.63;;;17.00;99.90;;;;;;6186268;23;20017;-85
2022/07/07 12:13:26;;;;;;;3.53;2.20;;;17.00;99.90;;;;;;6162571;23;20013;-83
2022/07/07 12:15:58;;;;;;;3.10;2.30;;;17.00;99.90;;;;;;6162889;23;20020;-84
2022/07/07 12:18:41;;;;;;;3.83;2.15;;;17.00;99.90;;;;;;6162480;23;20028;-84
2022/07/07 12:21:13;;;;;;;3.60;2.55;;;17.10;99.90;;;;;;6198011;23;20035;-84
2022/07/07 12:23:45;;;;;;;6.13;2.40;;;17.00;99.90;;;;;;6161232;23;20032;-86
2022/07/07 12:26:16;;;;;;;8.77;2.40;;;16.90;99.90;;;;;;6221050;23;20021;-86
2022/07/07 12:28:44;;;;;;;2.20;1.75;;;16.90;99.90;;;;;;6223721;23;20035;-86
2022/07/07 12:31:21;;;;;;;1.30;1.30;;;16.90;99.90;;;;;;6217236;23;20040;-84
2022/07/07 12:33:52;;;;;;;3.72;1.80;;;17.00;99.90;;;;;;6186662;23;20013;-85
2022/07/07 12:36:24;;;;;;;1.60;1.33;;;16.90;99.90;;;;;;6223820;23;20016;-84
2022/07/07 12:38:59;;;;;;;3.95;2.20;;;16.90;99.90;;;;;;6161637;23;20795;-83
2022/07/07 12:41:34;;;;;;;2.05;1.73;;;16.90;99.90;;;;;;6197317;23;20017;-86
2022/07/07 12:44:22;;;;;;;3.88;2.33;;;16.90;99.90;;;;;;6137548;23;20029;-84
2022/07/07 12:47:10;;;;;;;2.42;1.98;;;16.90;99.90;;;;;;6190250;23;20330;-84
2022/07/07 12:49:52;;;;;;;2.17;1.45;;;16.90;99.90;;;;;;6195271;23;20047;-84
2022/07/07 12:52:22;;;;;;;2.53;2.33;;;16.90;99.90;;;;;;6147007;23;20023;-85
2022/07/07 12:55:07;;;;;;;3.63;2.45;;;16.80;99.90;;;;;;6192252;23;20028;-83
2022/07/07 12:58:00;;;;;;;3.38;1.80;;;16.80;99.90;;;;;;6197038;23;20016;-85
2022/07/07 13:01:27;;;;;;;3.47;2.63;;;16.70;99.90;;;;;;6073497;23;20036;-84
2022/07/07 13:04:25;;;;;;;4.57;2.08;;;16.60;99.90;;;;;;6163259;23;20021;-87
2022/07/07 13:07:13;;;;;;;3.47;2.28;;;16.50;99.90;;;;;;6169149;23;20028;-82
2022/07/07 13:09:41;;;;;;;12.15;4.05;;;16.50;99.90;;;;;;6171822;23;20421;-82
2022/07/07 13:12:11;;;;;;;4.95;3.53;;;16.50;99.90;;;;;;6163818;23;20322;-82